createdAt,value
2022-10-31T00:01:12.257Z,99731.34
2022-10-31T00:03:40.610Z,99738.66
2022-10-31T00:06:09.220Z,99736.88
2022-10-31T00:08:37.528Z,99743.16
2022-10-31T00:11:09.943Z,99746.78
2022-10-31T00:13:39.913Z,99738.38
2022-10-31T00:16:15.995Z,99740.34
2022-10-31T00:18:44.440Z,99736.09
2022-10-31T00:21:12.886Z,99740.66
2022-10-31T00:23:41.344Z,99745.88
2022-10-31T00:26:09.809Z,99737.94
2022-10-31T00:28:39.621Z,99731.81
2022-10-31T00:31:10.121Z,99736.94
2022-10-31T00:33:39.832Z,99738.59
2022-10-31T00:36:09.970Z,99736.69
2022-10-31T00:38:38.575Z,99733.91
2022-10-31T00:41:07.061Z,99732.84
2022-10-31T00:43:35.401Z,99736.31
2022-10-31T00:46:05.262Z,99728.13
2022-10-31T00:48:33.634Z,99721.31
2022-10-31T00:51:01.980Z,99721.66
2022-10-31T00:53:30.332Z,99713.84
2022-10-31T00:55:58.847Z,99713.03
2022-10-31T00:58:27.529Z,99713.00
2022-10-31T01:00:56.884Z,99709.59
2022-10-31T01:03:29.107Z,99700.00
2022-10-31T01:06:01.610Z,99704.66
2022-10-31T01:08:30.429Z,99706.66
2022-10-31T01:11:05.083Z,99712.97
2022-10-31T01:13:34.620Z,99709.50
2022-10-31T01:16:06.076Z,99699.16
2022-10-31T01:18:36.463Z,99715.22
2022-10-31T01:21:07.072Z,99706.44
2022-10-31T01:23:35.478Z,99717.81
2022-10-31T01:26:06.579Z,99713.47
2022-10-31T01:28:35.746Z,99716.03
2022-10-31T01:31:07.088Z,99717.81
2022-10-31T01:33:38.676Z,99714.59
2022-10-31T01:36:18.489Z,99719.25
2022-10-31T01:38:47.421Z,99723.72
2022-10-31T01:41:18.763Z,99716.56
2022-10-31T01:43:50.527Z,99714.69
2022-10-31T01:46:23.967Z,99719.78
2022-10-31T01:48:55.663Z,99716.34
2022-10-31T01:51:30.666Z,99720.53
2022-10-31T01:54:03.416Z,99721.34
2022-10-31T01:56:33.047Z,99707.97
2022-10-31T01:59:03.054Z,99715.72
2022-10-31T02:01:31.715Z,99713.94
2022-10-31T02:04:01.599Z,99716.50
2022-10-31T02:06:38.090Z,99713.69
2022-10-31T02:09:07.825Z,99709.31
2022-10-31T02:11:38.111Z,99704.00
2022-10-31T02:14:06.611Z,99704.81
2022-10-31T02:16:35.380Z,99699.31
2022-10-31T02:19:10.836Z,99704.31
2022-10-31T02:21:47.079Z,99698.97
2022-10-31T02:24:54.314Z,99709.56
2022-10-31T02:27:48.908Z,99705.16
2022-10-31T02:30:20.800Z,99691.91
2022-10-31T02:33:09.815Z,99698.94
2022-10-31T02:35:49.691Z,99685.53
2022-10-31T02:38:37.522Z,99684.53
2022-10-31T02:41:16.482Z,99691.34
2022-10-31T02:44:03.120Z,99698.50
2022-10-31T02:46:36.511Z,99695.03
2022-10-31T02:49:13.018Z,99696.84
2022-10-31T02:51:41.469Z,99683.69
2022-10-31T02:54:20.076Z,99687.03
2022-10-31T02:56:54.987Z,99677.41
2022-10-31T02:59:24.443Z,99671.34
2022-10-31T03:02:31.396Z,99666.22
2022-10-31T03:05:16.596Z,99677.19
2022-10-31T03:07:53.062Z,99675.03
2022-10-31T03:10:33.545Z,99680.75
2022-10-31T03:13:10.253Z,99676.47
2022-10-31T03:15:43.229Z,99671.03
2022-10-31T03:18:17.700Z,99668.34
2022-10-31T03:20:55.464Z,99656.91
2022-10-31T03:23:26.505Z,99661.16
2022-10-31T03:25:56.738Z,99666.81
2022-10-31T03:28:31.542Z,99673.97
2022-10-31T03:31:04.743Z,99679.16
2022-10-31T03:33:40.278Z,99680.94
2022-10-31T03:36:12.584Z,99678.63
2022-10-31T03:38:43.065Z,99677.06
2022-10-31T03:41:16.118Z,99665.00
2022-10-31T03:43:54.357Z,99667.81
2022-10-31T03:46:23.846Z,99671.63
2022-10-31T03:48:52.997Z,99669.16
2022-10-31T03:51:28.667Z,99671.81
2022-10-31T03:54:01.851Z,99674.44
2022-10-31T03:56:37.299Z,99670.97
2022-10-31T03:59:12.545Z,99660.63
2022-10-31T04:01:47.055Z,99666.88
2022-10-31T04:04:16.695Z,99664.22
2022-10-31T04:06:49.382Z,99665.22
2022-10-31T04:09:19.694Z,99671.34
2022-10-31T04:11:53.029Z,99672.63
2022-10-31T04:14:43.018Z,99667.75
2022-10-31T04:17:16.041Z,99667.22
2022-10-31T04:19:45.269Z,99664.09
2022-10-31T04:22:15.467Z,99663.34
2022-10-31T04:24:43.808Z,99662.38
2022-10-31T04:27:15.951Z,99659.69
2022-10-31T04:29:46.911Z,99650.81
2022-10-31T04:32:18.680Z,99644.84
2022-10-31T04:34:47.045Z,99642.00
2022-10-31T04:37:16.941Z,99640.25
2022-10-31T04:39:45.510Z,99645.69
2022-10-31T04:42:33.257Z,99643.44
2022-10-31T04:45:05.385Z,99637.53
2022-10-31T04:47:35.699Z,99642.94
2022-10-31T04:50:04.824Z,99643.19
2022-10-31T04:52:41.496Z,99641.78
2022-10-31T04:55:12.273Z,99630.53
2022-10-31T04:57:52.675Z,99636.84
2022-10-31T05:00:23.538Z,99641.31
2022-10-31T05:02:54.490Z,99647.28
2022-10-31T05:05:25.371Z,99635.78
2022-10-31T05:07:55.587Z,99648.00
2022-10-31T05:10:28.612Z,99644.41
2022-10-31T05:13:02.583Z,99643.56
2022-10-31T05:15:51.118Z,99637.50
2022-10-31T05:18:28.361Z,99633.00
2022-10-31T05:21:17.145Z,99636.25
2022-10-31T05:23:51.261Z,99639.84
2022-10-31T05:26:20.147Z,99634.53
2022-10-31T05:28:49.509Z,99626.59
2022-10-31T05:31:18.119Z,99630.25
2022-10-31T05:33:46.606Z,99626.78
2022-10-31T05:36:33.454Z,99610.34
2022-10-31T05:39:06.770Z,99621.63
2022-10-31T05:41:42.875Z,99618.06
2022-10-31T05:44:31.495Z,99622.56
2022-10-31T05:47:26.580Z,99618.19
2022-10-31T05:49:57.845Z,99626.88
2022-10-31T05:52:44.782Z,99611.69
2022-10-31T05:55:26.478Z,99610.88
2022-10-31T05:58:10.216Z,99605.59
2022-10-31T06:00:40.560Z,99588.94
2022-10-31T06:03:11.775Z,99589.94
2022-10-31T06:05:50.637Z,99594.44
2022-10-31T06:08:22.548Z,99582.28
2022-10-31T06:10:53.995Z,99583.09
2022-10-31T06:13:30.939Z,99584.75
2022-10-31T06:16:04.157Z,99590.19
2022-10-31T06:18:37.968Z,99588.41
2022-10-31T06:21:06.707Z,99582.25
2022-10-31T06:23:35.290Z,99578.66
2022-10-31T06:26:23.462Z,99579.53
2022-10-31T06:28:52.034Z,99590.06
2022-10-31T06:31:40.368Z,99592.69
2022-10-31T06:34:08.957Z,99595.22
2022-10-31T06:36:37.488Z,99593.41
2022-10-31T06:39:06.550Z,99595.09
2022-10-31T06:41:37.525Z,99592.47
2022-10-31T06:44:08.883Z,99587.28
2022-10-31T06:47:03.684Z,99590.88
2022-10-31T06:49:52.725Z,99580.09
2022-10-31T06:52:25.260Z,99600.00
2022-10-31T06:54:54.510Z,99593.00
2022-10-31T06:57:26.345Z,99598.19
2022-10-31T06:59:54.788Z,99607.88
2022-10-31T07:02:41.901Z,99601.16
2022-10-31T07:05:10.311Z,99603.44
2022-10-31T07:07:38.656Z,99602.22
2022-10-31T07:10:07.386Z,99598.34
2022-10-31T07:12:57.344Z,99589.19
2022-10-31T07:15:25.963Z,99583.69
2022-10-31T07:17:54.866Z,99589.53
2022-10-31T07:20:23.676Z,99581.31
2022-10-31T07:22:52.448Z,99585.34
2022-10-31T07:25:21.264Z,99585.16
2022-10-31T07:28:11.847Z,99589.25
2022-10-31T07:30:40.792Z,99595.19
2022-10-31T07:33:11.120Z,99593.16
2022-10-31T07:36:11.261Z,99588.25
2022-10-31T07:38:42.695Z,99599.28
2022-10-31T07:41:11.423Z,99592.81
2022-10-31T07:43:45.664Z,99590.66
2022-10-31T07:46:14.086Z,99588.66
2022-10-31T07:48:44.429Z,99601.56
2022-10-31T07:51:31.603Z,99592.47
2022-10-31T07:54:20.208Z,99603.50
2022-10-31T07:56:49.772Z,99603.31
2022-10-31T07:59:19.654Z,99603.06
2022-10-31T08:01:47.978Z,99599.19
2022-10-31T08:04:35.085Z,99595.38
2022-10-31T08:07:22.249Z,99595.16
2022-10-31T08:09:57.651Z,99592.19
2022-10-31T08:12:30.497Z,99594.47
2022-10-31T08:15:00.849Z,99592.34
2022-10-31T08:17:30.506Z,99593.69
2022-10-31T08:20:01.483Z,99588.91
2022-10-31T08:22:34.326Z,99579.66
2022-10-31T08:25:04.116Z,99586.28
2022-10-31T08:27:32.716Z,99564.53
2022-10-31T08:30:04.118Z,99562.09
2022-10-31T08:32:34.367Z,99560.63
2022-10-31T08:35:21.087Z,99563.22
2022-10-31T08:38:18.728Z,99560.91
2022-10-31T08:40:50.385Z,99559.25
2022-10-31T08:43:20.018Z,99561.16
2022-10-31T08:45:51.798Z,99542.03
2022-10-31T08:48:26.334Z,99535.13
2022-10-31T08:50:58.987Z,99527.56
2022-10-31T08:53:28.802Z,99523.22
2022-10-31T08:56:32.093Z,99525.09
2022-10-31T08:59:02.467Z,99516.91
2022-10-31T09:01:51.159Z,99515.50
2022-10-31T09:04:20.311Z,99526.56
2022-10-31T09:07:19.565Z,99510.34
2022-10-31T09:09:37.161Z,99503.25
2022-10-31T09:12:05.940Z,99503.78
2022-10-31T09:14:53.085Z,99496.72
2022-10-31T09:17:55.465Z,99493.72
2022-10-31T09:20:53.187Z,99482.06
2022-10-31T09:23:23.557Z,99484.59
2022-10-31T09:25:55.021Z,99482.34
2022-10-31T09:28:40.645Z,99482.16
2022-10-31T09:31:11.670Z,99471.81
2022-10-31T09:33:50.154Z,99469.25
2022-10-31T09:36:37.704Z,99466.38
2022-10-31T09:39:08.364Z,99459.66
2022-10-31T09:42:03.622Z,99451.03
2022-10-31T09:44:45.321Z,99455.00
2022-10-31T09:47:35.810Z,99448.31
2022-10-31T09:50:28.101Z,99430.50
2022-10-31T09:53:02.966Z,99417.44
2022-10-31T09:55:39.132Z,99422.94
2022-10-31T09:58:16.508Z,99418.59
2022-10-31T10:00:46.984Z,99398.34
2022-10-31T10:03:32.888Z,99427.94
2022-10-31T10:06:15.864Z,99451.72
2022-10-31T10:09:12.807Z,99453.84
2022-10-31T10:12:10.154Z,99447.50
2022-10-31T10:14:49.987Z,99445.72
2022-10-31T10:17:34.412Z,99445.31
2022-10-31T10:20:30.364Z,99448.72
2022-10-31T10:23:14.693Z,99448.63
2022-10-31T10:25:45.011Z,99450.94
2022-10-31T10:28:21.930Z,99450.88
2022-10-31T10:30:55.318Z,99458.00
2022-10-31T10:33:29.607Z,99446.19
2022-10-31T10:36:01.551Z,99444.28
2022-10-31T10:38:39.227Z,99449.56
2022-10-31T10:41:17.418Z,99441.31
2022-10-31T10:46:37.754Z,99433.41
2022-10-31T10:49:14.276Z,99438.81
2022-10-31T10:55:01.558Z,99414.88
2022-10-31T10:57:40.696Z,99408.59
2022-10-31T11:00:19.923Z,99407.34
2022-10-31T11:02:49.343Z,99398.72
2022-10-31T11:05:25.860Z,99393.00
2022-10-31T11:07:54.318Z,99379.59
2022-10-31T11:10:24.181Z,99379.47
2022-10-31T11:13:16.751Z,99378.78
2022-10-31T11:15:54.677Z,99366.28
2022-10-31T11:18:26.609Z,99361.16
2022-10-31T11:20:57.127Z,99358.78
2022-10-31T11:23:27.496Z,99348.78
2022-10-31T11:25:59.890Z,99332.66
2022-10-31T11:28:30.335Z,99338.28
2022-10-31T11:31:01.252Z,99343.38
2022-10-31T11:33:34.285Z,99332.41
2022-10-31T11:36:04.007Z,99331.84
2022-10-31T11:38:36.952Z,99323.25
2022-10-31T11:41:15.078Z,99320.44
2022-10-31T11:43:50.570Z,99310.19
2022-10-31T11:46:23.532Z,99309.28
2022-10-31T11:48:55.824Z,99300.78
2022-10-31T11:51:27.411Z,99300.44
2022-10-31T11:54:02.731Z,99295.22
2022-10-31T11:56:42.570Z,99285.94
2022-10-31T11:59:20.670Z,99279.06
2022-10-31T12:01:51.015Z,99278.09
2022-10-31T12:04:19.867Z,99260.84
2022-10-31T12:06:50.923Z,99255.69
2022-10-31T12:09:24.101Z,99244.97
2022-10-31T12:12:08.545Z,99249.44
2022-10-31T12:14:51.655Z,99247.38
2022-10-31T12:17:25.630Z,99248.59
2022-10-31T12:20:04.919Z,99233.81
2022-10-31T12:22:44.961Z,99241.56
2022-10-31T12:25:30.123Z,99250.38
2022-10-31T12:28:16.449Z,99240.22
2022-10-31T12:30:59.948Z,99232.47
2022-10-31T12:33:42.112Z,99228.25
2022-10-31T12:36:23.084Z,99219.06
2022-10-31T12:39:06.522Z,99228.34
2022-10-31T12:41:53.159Z,99223.22
2022-10-31T12:44:40.542Z,99211.47
2022-10-31T12:47:33.215Z,99205.53
2022-10-31T12:50:13.818Z,99197.94
2022-10-31T12:52:53.619Z,99187.78
2022-10-31T12:55:37.793Z,99185.19
2022-10-31T12:58:12.184Z,99178.56
2022-10-31T13:00:46.648Z,99170.78
2022-10-31T13:03:27.732Z,99165.19
2022-10-31T13:06:00.336Z,99158.50
2022-10-31T13:08:36.318Z,99156.72
2022-10-31T13:11:11.059Z,99151.69
2022-10-31T13:13:45.596Z,99140.03
2022-10-31T13:16:18.479Z,99133.84
2022-10-31T13:18:50.423Z,99125.59
2022-10-31T13:21:25.658Z,99124.03
2022-10-31T13:23:57.233Z,99108.97
2022-10-31T13:26:43.938Z,99111.84
2022-10-31T13:29:20.352Z,99095.75
2022-10-31T13:31:52.134Z,99090.16
2022-10-31T13:34:30.741Z,99081.66
2022-10-31T13:37:07.230Z,99071.75
2022-10-31T13:40:05.423Z,99070.63
2022-10-31T13:42:47.848Z,99077.59
2022-10-31T13:45:18.372Z,99070.53
2022-10-31T13:48:00.587Z,99060.88
2022-10-31T13:50:30.831Z,99071.25
2022-10-31T13:53:14.746Z,99066.88
2022-10-31T13:55:45.120Z,99065.28
2022-10-31T13:58:24.521Z,99073.56
2022-10-31T14:01:19.190Z,99071.25
2022-10-31T14:04:11.062Z,99079.47
2022-10-31T14:06:53.375Z,99069.38
2022-10-31T14:09:27.479Z,99069.75
2022-10-31T14:11:58.530Z,99052.81
2022-10-31T14:14:36.178Z,99040.59
2022-10-31T14:17:05.055Z,99040.22
2022-10-31T14:19:35.805Z,99038.53
2022-10-31T14:22:04.258Z,99035.22
2022-10-31T14:24:35.976Z,99038.41
2022-10-31T14:27:26.831Z,99033.91
2022-10-31T14:29:55.212Z,99032.78
2022-10-31T14:32:25.204Z,99019.47
2022-10-31T14:34:58.350Z,99017.66
2022-10-31T14:37:41.719Z,99011.69
2022-10-31T14:40:26.793Z,99014.63
2022-10-31T14:43:29.308Z,99008.88
2022-10-31T14:46:03.006Z,99007.75
2022-10-31T14:48:58.352Z,98994.31
2022-10-31T14:51:40.557Z,98999.03
2022-10-31T14:54:15.685Z,98994.09
2022-10-31T14:56:51.679Z,98986.75
2022-10-31T14:59:24.427Z,98979.75
2022-10-31T15:01:58.710Z,98976.34
2022-10-31T15:04:30.258Z,98976.53
2022-10-31T15:07:07.057Z,98966.00
2022-10-31T15:09:37.699Z,98976.38
2022-10-31T15:12:24.835Z,98957.31
2022-10-31T15:14:54.196Z,98964.41
2022-10-31T15:17:24.046Z,98957.03
2022-10-31T15:19:53.624Z,98947.34
2022-10-31T15:22:28.164Z,98947.91
2022-10-31T15:24:58.112Z,98943.53
2022-10-31T15:27:27.174Z,98944.72
2022-10-31T15:29:57.921Z,98946.91
2022-10-31T15:32:29.880Z,98948.19
2022-10-31T15:34:59.121Z,98946.84
2022-10-31T15:37:29.672Z,98949.13
2022-10-31T15:40:16.280Z,98952.22
2022-10-31T15:42:46.180Z,98959.84
2022-10-31T15:45:21.456Z,98957.56
2022-10-31T15:47:53.721Z,98964.09
2022-10-31T15:50:26.626Z,98968.66
2022-10-31T15:52:57.810Z,98967.69
2022-10-31T15:55:29.063Z,98964.78
2022-10-31T15:58:00.673Z,98967.13
2022-10-31T16:00:31.845Z,98959.53
2022-10-31T16:03:08.032Z,98968.44
2022-10-31T16:05:38.975Z,98972.47
2022-10-31T16:08:27.733Z,98974.84
2022-10-31T16:11:03.415Z,98948.28
2022-10-31T16:13:36.935Z,98951.25
2022-10-31T16:19:04.123Z,98954.56
2022-10-31T16:21:37.173Z,98946.00
2022-10-31T16:24:19.612Z,98944.06
2022-10-31T16:26:53.374Z,98941.88
2022-10-31T16:29:29.865Z,98954.09
2022-10-31T16:31:58.310Z,98942.38
2022-10-31T16:34:27.364Z,98952.00
2022-10-31T16:36:55.976Z,98950.28
2022-10-31T16:39:25.764Z,98958.59
2022-10-31T16:41:56.990Z,98955.81
2022-10-31T16:44:27.779Z,98952.19
2022-10-31T16:47:12.259Z,98949.22
2022-10-31T16:49:40.819Z,98949.13
2022-10-31T16:52:09.218Z,98950.09
2022-10-31T16:54:40.018Z,98942.19
2022-10-31T16:57:16.849Z,98947.13
2022-10-31T16:59:48.453Z,98947.13
2022-10-31T17:02:18.515Z,98944.75
2022-10-31T17:04:49.596Z,98934.00
2022-10-31T17:07:20.609Z,98938.44
2022-10-31T17:09:50.412Z,98929.72
2022-10-31T17:12:20.700Z,98928.47
2022-10-31T17:14:52.685Z,98919.97
2022-10-31T17:17:21.175Z,98914.47
2022-10-31T17:19:49.777Z,98910.38
2022-10-31T17:22:18.331Z,98910.50
2022-10-31T17:24:46.700Z,98898.31
2022-10-31T17:27:16.368Z,98898.38
2022-10-31T17:29:44.702Z,98897.41
2022-10-31T17:32:13.057Z,98900.75
2022-10-31T17:34:41.449Z,98906.38
2022-10-31T17:37:12.352Z,98906.59
2022-10-31T17:39:40.838Z,98905.25
2022-10-31T17:42:09.208Z,98899.56
2022-10-31T17:44:38.977Z,98907.72
2022-10-31T17:47:07.766Z,98903.72
2022-10-31T17:49:36.666Z,98900.97
2022-10-31T17:52:05.777Z,98900.97
2022-10-31T17:54:34.357Z,98888.59
2022-10-31T17:57:02.899Z,98891.25
2022-10-31T17:59:31.416Z,98897.34
2022-10-31T18:02:01.884Z,98898.09
2022-10-31T18:04:33.089Z,98890.13
2022-10-31T18:07:01.572Z,98886.41
2022-10-31T18:09:29.935Z,98888.19
2022-10-31T18:11:58.668Z,98882.78
2022-10-31T18:14:28.046Z,98884.88
2022-10-31T18:16:56.369Z,98878.59
2022-10-31T18:19:26.334Z,98883.16
2022-10-31T18:21:54.807Z,98882.41
2022-10-31T18:24:23.321Z,98880.69
2022-10-31T18:26:52.320Z,98880.41
2022-10-31T18:29:21.171Z,98885.53
2022-10-31T18:31:51.260Z,98888.13
2022-10-31T18:34:20.108Z,98877.66
2022-10-31T18:36:50.265Z,98875.63
2022-10-31T18:39:19.136Z,98878.41
2022-10-31T18:41:47.604Z,98876.59
2022-10-31T18:44:16.028Z,98872.03
2022-10-31T18:46:44.527Z,98877.09
2022-10-31T18:49:13.049Z,98866.72
2022-10-31T18:51:41.458Z,98860.53
2022-10-31T18:54:12.078Z,98861.47
2022-10-31T18:56:40.510Z,98868.78
2022-10-31T18:59:09.347Z,98861.19
2022-10-31T19:01:37.882Z,98865.75
2022-10-31T19:04:06.862Z,98858.44
2022-10-31T19:06:37.335Z,98863.19
2022-10-31T19:09:09.138Z,98852.53
2022-10-31T19:11:40.392Z,98849.97
2022-10-31T19:14:11.217Z,98851.19
2022-10-31T19:16:39.731Z,98843.94
2022-10-31T19:19:09.625Z,98839.69
2022-10-31T19:21:38.225Z,98843.31
2022-10-31T19:24:07.137Z,98843.56
2022-10-31T19:26:35.819Z,98840.53
2022-10-31T19:29:06.052Z,98841.09
2022-10-31T19:31:34.437Z,98843.28
2022-10-31T19:34:02.837Z,98839.13
2022-10-31T19:36:31.279Z,98842.25
2022-10-31T19:38:59.776Z,98843.88
2022-10-31T19:41:29.862Z,98831.28
2022-10-31T19:44:00.527Z,98842.16
2022-10-31T19:49:18.771Z,98844.53
2022-10-31T19:51:47.119Z,98843.84
2022-10-31T19:54:15.728Z,98836.34
2022-10-31T19:56:44.180Z,98831.28
2022-10-31T19:59:12.670Z,98838.81
2022-10-31T20:01:42.472Z,98831.88
2022-10-31T20:04:11.208Z,98821.41
2022-10-31T20:06:41.387Z,98829.00
2022-10-31T20:09:13.687Z,98826.34
2022-10-31T20:14:55.236Z,98811.97
2022-10-31T20:17:25.054Z,98823.22
2022-10-31T20:19:53.393Z,98814.16
2022-10-31T20:22:21.972Z,98806.00
2022-10-31T20:24:50.311Z,98815.69
2022-10-31T20:27:18.708Z,98800.09
2022-10-31T20:29:47.161Z,98809.91
2022-10-31T20:32:15.589Z,98795.72
2022-10-31T20:34:45.410Z,98791.44
2022-10-31T20:37:14.163Z,98796.56
2022-10-31T20:39:42.694Z,98803.44
2022-10-31T20:42:11.217Z,98781.81
2022-10-31T20:44:39.702Z,98794.97
2022-10-31T20:47:08.170Z,98791.03
2022-10-31T20:49:36.475Z,98790.41
2022-10-31T20:52:06.481Z,98786.00
2022-10-31T20:54:35.049Z,98785.16
2022-10-31T20:57:03.409Z,98778.09
2022-10-31T20:59:31.863Z,98789.72
2022-10-31T21:02:00.414Z,98786.84
2022-10-31T21:04:28.901Z,98792.66
2022-10-31T21:06:59.347Z,98781.69
2022-10-31T21:09:29.193Z,98787.16
2022-10-31T21:11:57.642Z,98790.06
2022-10-31T21:14:26.161Z,98785.50
2022-10-31T21:16:54.548Z,98778.94
2022-10-31T21:19:23.141Z,98775.28
2022-10-31T21:21:51.517Z,98783.00
2022-10-31T21:24:21.519Z,98774.06
2022-10-31T21:26:53.022Z,98776.50
2022-10-31T21:29:22.434Z,98778.19
2022-10-31T21:31:51.246Z,98774.06
2022-10-31T21:34:19.698Z,98777.25
2022-10-31T21:36:48.236Z,98778.50
2022-10-31T21:39:16.600Z,98772.13
2022-10-31T21:41:45.082Z,98771.63
2022-10-31T21:44:15.139Z,98763.94
2022-10-31T21:46:44.959Z,98764.69
2022-10-31T21:49:13.545Z,98766.38
2022-10-31T21:51:43.524Z,98759.81
2022-10-31T21:54:28.355Z,98758.28
2022-10-31T21:56:57.647Z,98768.28
2022-10-31T21:59:27.915Z,98761.06
2022-10-31T22:01:58.111Z,98758.50
2022-10-31T22:04:27.064Z,98769.16
2022-10-31T22:06:55.599Z,98769.06
2022-10-31T22:09:24.229Z,98779.03
2022-10-31T22:11:52.761Z,98774.03
2022-10-31T22:14:21.244Z,98772.53
2022-10-31T22:16:50.919Z,98766.72
2022-10-31T22:19:19.325Z,98771.84
2022-10-31T22:21:49.093Z,98767.09
2022-10-31T22:24:18.651Z,98776.22
2022-10-31T22:26:47.000Z,98771.91
2022-10-31T22:29:17.986Z,98766.53
2022-10-31T22:31:50.613Z,98761.38
2022-10-31T22:34:23.342Z,98768.63
2022-10-31T22:36:57.444Z,98771.84
2022-10-31T22:39:25.898Z,98753.69
2022-10-31T22:41:54.419Z,98766.03
2022-10-31T22:44:23.005Z,98757.06
2022-10-31T22:46:51.390Z,98759.94
2022-10-31T22:49:19.709Z,98767.19
2022-10-31T22:51:51.686Z,98765.59
2022-10-31T22:54:20.445Z,98771.31
2022-10-31T22:56:48.814Z,98752.13
2022-10-31T22:59:17.833Z,98755.19
2022-10-31T23:01:46.627Z,98760.59
2022-10-31T23:04:16.614Z,98757.09
2022-10-31T23:06:45.706Z,98743.50
2022-10-31T23:09:18.399Z,98749.88
2022-10-31T23:11:46.819Z,98734.47
2022-10-31T23:14:18.634Z,98743.44
2022-10-31T23:16:49.541Z,98730.13
2022-10-31T23:19:19.627Z,98733.19
2022-10-31T23:21:56.576Z,98731.81
2022-10-31T23:24:34.181Z,98732.78
2022-10-31T23:27:10.410Z,98730.22
2022-10-31T23:29:42.021Z,98730.00
2022-10-31T23:32:12.854Z,98728.97
2022-10-31T23:34:41.479Z,98742.94
2022-10-31T23:37:10.429Z,98726.47
2022-10-31T23:39:40.241Z,98718.47
2022-10-31T23:42:08.919Z,98713.75
2022-10-31T23:44:37.401Z,98711.78
2022-10-31T23:47:06.569Z,98704.00
2022-10-31T23:49:34.987Z,98706.59
2022-10-31T23:52:03.607Z,98712.97
2022-10-31T23:54:32.575Z,98706.31
2022-10-31T23:57:02.964Z,98705.84
2022-10-31T23:59:31.846Z,98703.50
